PWSweather.com
Personal Weather Stations
Station Observations
WHITEHV
Whitehorse, YK y1a5w5

Whitehorse, YK y1a5w5

Lat: 60.829, Lon: -135.194

Elevation: 2165

Station Type: DAVIS VANTAGE PRO 2

Latest ConditionsUpdated 9:31:00 AM PST Saturday, Jan 31, 2015
Currently Today's Max Today's Min Today's Average
Temperature -14.3°F-25.7°C -7.0°F-21.7°C -17.7°F-27.6°C -14.8°F-26.0°C
Dew Point -19.4°F-28.6°C -13.1°F-25.1°C -23.7°F-30.9°C -20.5°F-29.2°C
Winds Calm Calm Calm NCalm N - Calm Calm
Wind Gusts -- -- - -
Humidity 77% 77% 72% 75%
Pressure 31.03 in1050.8 mb 31.05 in1051.5 mb 31.02 in1050.5 mb -
Hour Temp Dew Point Humidity Winds Wind Gusts Pressure Precip Precip Rate Daily Precip Total
09:31 AM -14.3°F-25.7°C -19.4°F-28.6°C 77% Calm Calm -- 31.03 in1050.8 mb 0.00 in0.0 mm 0.00 in/hr0.0 mm/hr 0.00 in0.0 mm
09:15 AM -14.3°F-25.7°C -19.4°F-28.6°C 77% Calm Calm -- 31.03 in1050.8 mb 0.00 in0.0 mm 0.00 in/hr0.0 mm/hr 0.00 in0.0 mm
09:01 AM -14.4°F-25.8°C -19.5°F-28.6°C 77% Calm Calm -- 31.03 in1050.8 mb 0.00 in0.0 mm 0.00 in/hr0.0 mm/hr 0.00 in0.0 mm
08:45 AM -14.5°F-25.8°C -19.6°F-28.7°C 77% Calm Calm -- 31.03 in1050.8 mb 0.00 in0.0 mm 0.00 in/hr0.0 mm/hr 0.00 in0.0 mm
08:31 AM -14.5°F-25.8°C -19.6°F-28.7°C 77% Calm Calm -- 31.02 in1050.5 mb 0.00 in0.0 mm 0.00 in/hr0.0 mm/hr 0.00 in0.0 mm
08:15 AM -14.6°F-25.9°C -19.7°F-28.7°C 77% Calm Calm -- 31.02 in1050.5 mb 0.00 in0.0 mm 0.00 in/hr0.0 mm/hr 0.00 in0.0 mm
08:01 AM -14.6°F-25.9°C -19.7°F-28.7°C 77% Calm Calm -- 31.02 in1050.5 mb 0.00 in0.0 mm 0.00 in/hr0.0 mm/hr 0.00 in0.0 mm
07:45 AM -14.8°F-26.0°C -19.9°F-28.8°C 77% Calm Calm -- 31.02 in1050.5 mb 0.00 in0.0 mm 0.00 in/hr0.0 mm/hr 0.00 in0.0 mm
07:31 AM -14.8°F-26.0°C -19.9°F-28.8°C 77% Calm Calm -- 31.02 in1050.5 mb 0.00 in0.0 mm 0.00 in/hr0.0 mm/hr 0.00 in0.0 mm
07:15 AM -15.0°F-26.1°C -20.1°F-28.9°C 77% Calm Calm -- 31.03 in1050.8 mb 0.00 in0.0 mm 0.00 in/hr0.0 mm/hr 0.00 in0.0 mm
07:01 AM -15.3°F-26.3°C -20.4°F-29.1°C 77% Calm Calm -- 31.03 in1050.8 mb 0.00 in0.0 mm 0.00 in/hr0.0 mm/hr 0.00 in0.0 mm
06:45 AM -15.6°F-26.4°C -20.7°F-29.3°C 77% Calm Calm -- 31.03 in1050.8 mb 0.00 in0.0 mm 0.00 in/hr0.0 mm/hr 0.00 in0.0 mm
06:31 AM -15.9°F-26.6°C -21.2°F-29.6°C 76% Calm Calm -- 31.04 in1051.1 mb 0.00 in0.0 mm 0.00 in/hr0.0 mm/hr 0.00 in0.0 mm
06:15 AM -16.3°F-26.8°C -21.6°F-29.8°C 76% Calm Calm -- 31.04 in1051.1 mb 0.00 in0.0 mm 0.00 in/hr0.0 mm/hr 0.00 in0.0 mm
06:01 AM -16.7°F-27.1°C -22.0°F-30.0°C 76% Calm Calm -- 31.04 in1051.1 mb 0.00 in0.0 mm 0.00 in/hr0.0 mm/hr 0.00 in0.0 mm
05:45 AM -17.1°F-27.3°C -22.4°F-30.2°C 76% Calm Calm -- 31.05 in1051.5 mb 0.00 in0.0 mm 0.00 in/hr0.0 mm/hr 0.00 in0.0 mm
05:31 AM -17.4°F-27.4°C -22.9°F-30.5°C 75% Calm Calm -- 31.05 in1051.5 mb 0.00 in0.0 mm 0.00 in/hr0.0 mm/hr 0.00 in0.0 mm
05:15 AM -17.6°F-27.6°C -23.1°F-30.6°C 75% Calm Calm -- 31.04 in1051.1 mb 0.00 in0.0 mm 0.00 in/hr0.0 mm/hr 0.00 in0.0 mm
05:00 AM -17.7°F-27.6°C -23.5°F-30.8°C 74% Calm Calm -- 31.04 in1051.1 mb 0.00 in0.0 mm 0.00 in/hr0.0 mm/hr 0.00 in0.0 mm
04:45 AM -17.7°F-27.6°C -23.5°F-30.8°C 74% Calm Calm -- 31.04 in1051.1 mb 0.00 in0.0 mm 0.00 in/hr0.0 mm/hr 0.00 in0.0 mm
04:31 AM -17.7°F-27.6°C -23.5°F-30.8°C 74% Calm Calm -- 31.05 in1051.5 mb 0.00 in0.0 mm 0.00 in/hr0.0 mm/hr 0.00 in0.0 mm
04:15 AM -17.7°F-27.6°C -23.5°F-30.8°C 74% Calm Calm -- 31.04 in1051.1 mb 0.00 in0.0 mm 0.00 in/hr0.0 mm/hr 0.00 in0.0 mm
04:01 AM -17.7°F-27.6°C -23.5°F-30.8°C 74% Calm Calm -- 31.04 in1051.1 mb 0.00 in0.0 mm 0.00 in/hr0.0 mm/hr 0.00 in0.0 mm
03:45 AM -17.7°F-27.6°C -23.7°F-30.9°C 73% Calm Calm -- 31.04 in1051.1 mb 0.00 in0.0 mm 0.00 in/hr0.0 mm/hr 0.00 in0.0 mm
03:31 AM -17.5°F-27.5°C -23.6°F-30.9°C 73% Calm Calm -- 31.04 in1051.1 mb 0.00 in0.0 mm 0.00 in/hr0.0 mm/hr 0.00 in0.0 mm
03:15 AM -17.2°F-27.3°C -23.5°F-30.8°C 72% Calm Calm -- 31.05 in1051.5 mb 0.00 in0.0 mm 0.00 in/hr0.0 mm/hr 0.00 in0.0 mm
03:01 AM -16.7°F-27.1°C -23.0°F-30.6°C 72% Calm Calm -- 31.05 in1051.5 mb 0.00 in0.0 mm 0.00 in/hr0.0 mm/hr 0.00 in0.0 mm
02:45 AM -16.1°F-26.7°C -22.4°F-30.2°C 72% Calm Calm -- 31.04 in1051.1 mb 0.00 in0.0 mm 0.00 in/hr0.0 mm/hr 0.00 in0.0 mm
02:31 AM -15.5°F-26.4°C -21.8°F-29.9°C 72% Calm Calm -- 31.04 in1051.1 mb 0.00 in0.0 mm 0.00 in/hr0.0 mm/hr 0.00 in0.0 mm
02:15 AM -14.6°F-25.9°C -21.1°F-29.5°C 72% Calm Calm -- 31.04 in1051.1 mb 0.00 in0.0 mm 0.00 in/hr0.0 mm/hr 0.00 in0.0 mm
02:01 AM -13.7°F-25.4°C -20.1°F-28.9°C 72% Calm Calm -- 31.04 in1051.1 mb 0.00 in0.0 mm 0.00 in/hr0.0 mm/hr 0.00 in0.0 mm
01:45 AM -12.9°F-24.9°C -19.1°F-28.4°C 73% Calm Calm -- 31.05 in1051.5 mb 0.00 in0.0 mm 0.00 in/hr0.0 mm/hr 0.00 in0.0 mm
01:31 AM -12.2°F-24.6°C -18.4°F-28.0°C 73% Calm Calm -- 31.04 in1051.1 mb 0.00 in0.0 mm 0.00 in/hr0.0 mm/hr 0.00 in0.0 mm
01:15 AM -11.5°F-24.2°C -17.7°F-27.6°C 73% Calm Calm -- 31.04 in1051.1 mb 0.00 in0.0 mm 0.00 in/hr0.0 mm/hr 0.00 in0.0 mm
01:00 AM -10.7°F-23.7°C -17.0°F-27.2°C 73% Calm Calm -- 31.03 in1050.8 mb 0.00 in0.0 mm 0.00 in/hr0.0 mm/hr 0.00 in0.0 mm
12:45 AM -9.7°F-23.2°C -16.0°F-26.7°C 73% Calm Calm -- 31.03 in1050.8 mb 0.00 in0.0 mm 0.00 in/hr0.0 mm/hr 0.00 in0.0 mm
12:31 AM -8.8°F-22.7°C -15.1°F-26.2°C 73% Calm Calm -- 31.02 in1050.5 mb 0.00 in0.0 mm 0.00 in/hr0.0 mm/hr 0.00 in0.0 mm
12:15 AM -7.8°F-22.1°C -14.1°F-25.6°C 73% Calm Calm -- 31.02 in1050.5 mb 0.00 in0.0 mm 0.00 in/hr0.0 mm/hr 0.00 in0.0 mm
12:01 AM -7.0°F-21.7°C -13.1°F-25.1°C 74% Calm Calm -- 31.02 in1050.5 mb 0.00 in0.0 mm 0.00 in/hr0.0 mm/hr 0.00 in0.0 mm